sensor_id;sensor_type;location;lat;lon;timestamp;temperature;humidity
1976;DHT22;988;48.016;7.800;2023-05-09T00:01:20;16.10;99.90
1976;DHT22;988;48.016;7.800;2023-05-09T00:03:46;16.10;99.90
1976;DHT22;988;48.016;7.800;2023-05-09T00:06:12;16.20;99.90
1976;DHT22;988;48.016;7.800;2023-05-09T00:08:38;16.20;99.90
1976;DHT22;988;48.016;7.800;2023-05-09T00:11:04;16.30;99.90
1976;DHT22;988;48.016;7.800;2023-05-09T00:13:29;16.30;99.90
1976;DHT22;988;48.016;7.800;2023-05-09T00:15:55;16.40;99.90
1976;DHT22;988;48.016;7.800;2023-05-09T00:18:22;16.40;99.90
1976;DHT22;988;48.016;7.800;2023-05-09T00:20:48;16.30;99.90
1976;DHT22;988;48.016;7.800;2023-05-09T00:23:14;16.40;99.90
1976;DHT22;988;48.016;7.800;2023-05-09T00:25:41;16.40;99.90
1976;DHT22;988;48.016;7.800;2023-05-09T00:28:06;16.50;99.90
1976;DHT22;988;48.016;7.800;2023-05-09T00:30:32;16.50;99.90
1976;DHT22;988;48.016;7.800;2023-05-09T00:32:58;16.60;99.90
1976;DHT22;988;48.016;7.800;2023-05-09T00:35:23;16.60;99.90
1976;DHT22;988;48.016;7.800;2023-05-09T00:37:49;16.40;99.90
1976;DHT22;988;48.016;7.800;2023-05-09T00:40:14;16.40;99.90
1976;DHT22;988;48.016;7.800;2023-05-09T00:42:40;16.40;99.90
1976;DHT22;988;48.016;7.800;2023-05-09T00:45:06;16.30;99.90
1976;DHT22;988;48.016;7.800;2023-05-09T00:47:33;16.30;99.90
1976;DHT22;988;48.016;7.800;2023-05-09T00:49:59;16.30;99.90
1976;DHT22;988;48.016;7.800;2023-05-09T00:52:25;16.20;99.90
1976;DHT22;988;48.016;7.800;2023-05-09T00:54:55;16.10;99.90
1976;DHT22;988;48.016;7.800;2023-05-09T00:57:21;16.00;99.90
1976;DHT22;988;48.016;7.800;2023-05-09T00:59:47;15.90;99.90
1976;DHT22;988;48.016;7.800;2023-05-09T01:02:15;15.80;99.90
1976;DHT22;988;48.016;7.800;2023-05-09T01:04:43;15.80;99.90
1976;DHT22;988;48.016;7.800;2023-05-09T01:07:18;15.70;99.90
1976;DHT22;988;48.016;7.800;2023-05-09T01:10:12;15.60;99.90
1976;DHT22;988;48.016;7.800;2023-05-09T01:13:09;15.50;99.90
1976;DHT22;988;48.016;7.800;2023-05-09T01:15:53;15.50;99.90
1976;DHT22;988;48.016;7.800;2023-05-09T01:18:31;15.40;99.90
1976;DHT22;988;48.016;7.800;2023-05-09T01:21:04;15.30;99.90
1976;DHT22;988;48.016;7.800;2023-05-09T01:26:42;15.20;99.90
1976;DHT22;988;48.016;7.800;2023-05-09T01:31:57;15.20;99.90
1976;DHT22;988;48.016;7.800;2023-05-09T01:34:27;15.30;99.90
1976;DHT22;988;48.016;7.800;2023-05-09T01:36:58;15.30;99.90
1976;DHT22;988;48.016;7.800;2023-05-09T01:39:26;15.40;99.90
1976;DHT22;988;48.016;7.800;2023-05-09T01:41:54;15.40;99.90
1976;DHT22;988;48.016;7.800;2023-05-09T01:44:21;15.30;99.90
1976;DHT22;988;48.016;7.800;2023-05-09T01:46:50;15.30;99.90
1976;DHT22;988;48.016;7.800;2023-05-09T01:49:17;15.20;99.90
1976;DHT22;988;48.016;7.800;2023-05-09T01:51:45;15.10;99.90
1976;DHT22;988;48.016;7.800;2023-05-09T01:54:12;15.10;99.90
1976;DHT22;988;48.016;7.800;2023-05-09T01:56:38;15.10;99.90
1976;DHT22;988;48.016;7.800;2023-05-09T01:59:06;15.00;99.90
1976;DHT22;988;48.016;7.800;2023-05-09T02:01:32;15.00;99.90
1976;DHT22;988;48.016;7.800;2023-05-09T02:03:58;15.10;99.90
1976;DHT22;988;48.016;7.800;2023-05-09T02:06:25;15.10;99.90
1976;DHT22;988;48.016;7.800;2023-05-09T02:08:54;15.20;99.90
1976;DHT22;988;48.016;7.800;2023-05-09T02:11:20;15.10;99.90
1976;DHT22;988;48.016;7.800;2023-05-09T02:13:45;15.20;99.90
1976;DHT22;988;48.016;7.800;2023-05-09T02:16:11;15.10;99.90
1976;DHT22;988;48.016;7.800;2023-05-09T02:18:37;15.20;99.90
1976;DHT22;988;48.016;7.800;2023-05-09T02:21:02;15.10;99.90
1976;DHT22;988;48.016;7.800;2023-05-09T02:23:29;14.90;99.90
1976;DHT22;988;48.016;7.800;2023-05-09T02:25:55;15.10;99.90
1976;DHT22;988;48.016;7.800;2023-05-09T02:28:22;15.10;99.90
1976;DHT22;988;48.016;7.800;2023-05-09T02:30:49;15.00;99.90
1976;DHT22;988;48.016;7.800;2023-05-09T02:33:16;14.90;99.90
1976;DHT22;988;48.016;7.800;2023-05-09T02:35:44;14.80;99.90
1976;DHT22;988;48.016;7.800;2023-05-09T02:38:11;14.80;99.90
1976;DHT22;988;48.016;7.800;2023-05-09T02:40:38;14.70;99.90
1976;DHT22;988;48.016;7.800;2023-05-09T02:43:04;14.70;99.90
1976;DHT22;988;48.016;7.800;2023-05-09T02:45:30;14.60;99.90
1976;DHT22;988;48.016;7.800;2023-05-09T02:47:56;14.60;99.90
1976;DHT22;988;48.016;7.800;2023-05-09T02:50:21;14.40;99.90
1976;DHT22;988;48.016;7.800;2023-05-09T02:52:47;14.50;99.90
1976;DHT22;988;48.016;7.800;2023-05-09T02:55:13;14.50;99.90
1976;DHT22;988;48.016;7.800;2023-05-09T02:57:38;14.40;99.90
1976;DHT22;988;48.016;7.800;2023-05-09T03:00:04;14.40;99.90
1976;DHT22;988;48.016;7.800;2023-05-09T03:02:34;14.40;99.90
1976;DHT22;988;48.016;7.800;2023-05-09T03:05:00;14.20;99.90
1976;DHT22;988;48.016;7.800;2023-05-09T03:07:25;14.20;99.90
1976;DHT22;988;48.016;7.800;2023-05-09T03:09:51;14.30;99.90
1976;DHT22;988;48.016;7.800;2023-05-09T03:12:17;14.20;99.90
1976;DHT22;988;48.016;7.800;2023-05-09T03:14:42;14.20;99.90
1976;DHT22;988;48.016;7.800;2023-05-09T03:17:08;14.20;99.90
1976;DHT22;988;48.016;7.800;2023-05-09T03:19:33;14.10;99.90
1976;DHT22;988;48.016;7.800;2023-05-09T03:21:59;14.00;99.90
1976;DHT22;988;48.016;7.800;2023-05-09T03:24:25;14.20;99.90
1976;DHT22;988;48.016;7.800;2023-05-09T03:26:53;14.10;99.90
1976;DHT22;988;48.016;7.800;2023-05-09T03:29:18;14.20;99.90
1976;DHT22;988;48.016;7.800;2023-05-09T03:31:44;14.30;99.90
1976;DHT22;988;48.016;7.800;2023-05-09T03:34:10;14.20;99.90
1976;DHT22;988;48.016;7.800;2023-05-09T03:36:42;14.20;99.90
1976;DHT22;988;48.016;7.800;2023-05-09T03:39:08;14.30;99.90
1976;DHT22;988;48.016;7.800;2023-05-09T03:41:34;14.30;99.90
1976;DHT22;988;48.016;7.800;2023-05-09T03:44:00;14.50;99.90
1976;DHT22;988;48.016;7.800;2023-05-09T03:46:26;14.40;99.90
1976;DHT22;988;48.016;7.800;2023-05-09T03:48:51;14.40;99.90
1976;DHT22;988;48.016;7.800;2023-05-09T03:51:17;14.40;99.90
1976;DHT22;988;48.016;7.800;2023-05-09T03:53:45;14.60;99.90
1976;DHT22;988;48.016;7.800;2023-05-09T03:56:11;14.70;99.90
1976;DHT22;988;48.016;7.800;2023-05-09T03:58:37;14.80;99.90
1976;DHT22;988;48.016;7.800;2023-05-09T04:01:02;14.80;99.90
1976;DHT22;988;48.016;7.800;2023-05-09T04:03:28;14.90;99.90
1976;DHT22;988;48.016;7.800;2023-05-09T04:05:54;14.90;99.90
1976;DHT22;988;48.016;7.800;2023-05-09T04:08:20;15.00;99.90
1976;DHT22;988;48.016;7.800;2023-05-09T04:10:46;15.10;99.90
1976;DHT22;988;48.016;7.800;2023-05-09T04:13:11;15.00;99.90
1976;DHT22;988;48.016;7.800;2023-05-09T04:15:37;15.10;99.90
1976;DHT22;988;48.016;7.800;2023-05-09T04:18:02;15.10;99.90
1976;DHT22;988;48.016;7.800;2023-05-09T04:20:28;15.10;99.90
1976;DHT22;988;48.016;7.800;2023-05-09T04:22:53;15.20;99.90
1976;DHT22;988;48.016;7.800;2023-05-09T04:25:19;15.20;99.90
1976;DHT22;988;48.016;7.800;2023-05-09T04:27:45;15.10;99.90
1976;DHT22;988;48.016;7.800;2023-05-09T04:30:11;15.30;99.90
1976;DHT22;988;48.016;7.800;2023-05-09T04:32:37;15.50;99.90
1976;DHT22;988;48.016;7.800;2023-05-09T04:35:03;15.60;99.90
1976;DHT22;988;48.016;7.800;2023-05-09T04:37:30;15.70;99.90
1976;DHT22;988;48.016;7.800;2023-05-09T04:39:57;15.90;99.90
1976;DHT22;988;48.016;7.800;2023-05-09T04:42:23;16.00;99.90
1976;DHT22;988;48.016;7.800;2023-05-09T04:44:48;16.00;99.90
1976;DHT22;988;48.016;7.800;2023-05-09T04:47:14;16.00;99.90
1976;DHT22;988;48.016;7.800;2023-05-09T04:49:40;16.20;99.90
1976;DHT22;988;48.016;7.800;2023-05-09T04:52:05;16.20;99.90
1976;DHT22;988;48.016;7.800;2023-05-09T04:54:31;16.30;99.90
1976;DHT22;988;48.016;7.800;2023-05-09T04:56:57;16.30;99.90
1976;DHT22;988;48.016;7.800;2023-05-09T04:59:22;16.40;99.90
1976;DHT22;988;48.016;7.800;2023-05-09T05:01:48;16.50;99.90
1976;DHT22;988;48.016;7.800;2023-05-09T05:04:13;16.60;99.90
1976;DHT22;988;48.016;7.800;2023-05-09T05:06:40;16.50;99.90
1976;DHT22;988;48.016;7.800;2023-05-09T05:09:06;16.60;99.90
1976;DHT22;988;48.016;7.800;2023-05-09T05:11:31;16.60;99.90
1976;DHT22;988;48.016;7.800;2023-05-09T05:13:57;16.50;99.90
1976;DHT22;988;48.016;7.800;2023-05-09T05:16:23;16.50;99.90
1976;DHT22;988;48.016;7.800;2023-05-09T05:18:48;16.50;99.90
1976;DHT22;988;48.016;7.800;2023-05-09T05:21:14;16.60;99.90
1976;DHT22;988;48.016;7.800;2023-05-09T05:23:40;16.60;99.90
1976;DHT22;988;48.016;7.800;2023-05-09T05:26:06;16.70;99.90
1976;DHT22;988;48.016;7.800;2023-05-09T05:28:31;16.80;99.90
1976;DHT22;988;48.016;7.800;2023-05-09T05:30:57;16.90;99.90
1976;DHT22;988;48.016;7.800;2023-05-09T05:33:22;17.20;99.90
1976;DHT22;988;48.016;7.800;2023-05-09T05:35:48;17.10;99.90
1976;DHT22;988;48.016;7.800;2023-05-09T05:38:13;17.30;99.90
1976;DHT22;988;48.016;7.800;2023-05-09T05:40:39;17.70;99.90
1976;DHT22;988;48.016;7.800;2023-05-09T05:43:05;17.80;99.90
1976;DHT22;988;48.016;7.800;2023-05-09T05:45:30;17.90;99.90
1976;DHT22;988;48.016;7.800;2023-05-09T05:47:56;17.90;99.90
1976;DHT22;988;48.016;7.800;2023-05-09T05:50:22;17.90;99.90
1976;DHT22;988;48.016;7.800;2023-05-09T05:52:47;18.00;99.90
1976;DHT22;988;48.016;7.800;2023-05-09T05:55:13;18.20;99.90
1976;DHT22;988;48.016;7.800;2023-05-09T05:57:38;18.40;99.90
1976;DHT22;988;48.016;7.800;2023-05-09T06:00:05;18.40;99.90
1976;DHT22;988;48.016;7.800;2023-05-09T06:02:36;18.40;99.90
1976;DHT22;988;48.016;7.800;2023-05-09T06:05:02;18.50;99.90
1976;DHT22;988;48.016;7.800;2023-05-09T06:07:28;18.30;99.90
1976;DHT22;988;48.016;7.800;2023-05-09T06:09:54;18.40;99.90
1976;DHT22;988;48.016;7.800;2023-05-09T06:12:19;18.40;99.90
1976;DHT22;988;48.016;7.800;2023-05-09T06:14:45;18.60;99.90
1976;DHT22;988;48.016;7.800;2023-05-09T06:17:10;18.60;99.90
1976;DHT22;988;48.016;7.800;2023-05-09T06:19:36;18.60;99.90
1976;DHT22;988;48.016;7.800;2023-05-09T06:22:02;18.70;99.90
1976;DHT22;988;48.016;7.800;2023-05-09T06:24:28;18.70;99.90
1976;DHT22;988;48.016;7.800;2023-05-09T06:26:53;19.10;99.90
1976;DHT22;988;48.016;7.800;2023-05-09T06:29:19;19.30;99.90
1976;DHT22;988;48.016;7.800;2023-05-09T06:31:44;19.20;99.90
1976;DHT22;988;48.016;7.800;2023-05-09T06:34:10;19.00;99.90
1976;DHT22;988;48.016;7.800;2023-05-09T06:36:35;19.20;99.90
1976;DHT22;988;48.016;7.800;2023-05-09T06:39:01;19.30;99.90
1976;DHT22;988;48.016;7.800;2023-05-09T06:41:27;19.40;99.90
1976;DHT22;988;48.016;7.800;2023-05-09T06:43:52;19.30;99.90
1976;DHT22;988;48.016;7.800;2023-05-09T06:46:18;19.70;99.90
1976;DHT22;988;48.016;7.800;2023-05-09T06:48:43;19.90;99.90
1976;DHT22;988;48.016;7.800;2023-05-09T06:51:09;20.20;99.90
1976;DHT22;988;48.016;7.800;2023-05-09T06:53:36;20.10;99.90
1976;DHT22;988;48.016;7.800;2023-05-09T06:56:01;20.30;99.90
1976;DHT22;988;48.016;7.800;2023-05-09T06:58:27;20.50;99.90
1976;DHT22;988;48.016;7.800;2023-05-09T07:00:53;20.70;99.90
1976;DHT22;988;48.016;7.800;2023-05-09T07:03:18;20.70;99.90
1976;DHT22;988;48.016;7.800;2023-05-09T07:05:44;20.70;99.90
1976;DHT22;988;48.016;7.800;2023-05-09T07:08:10;20.60;99.90
1976;DHT22;988;48.016;7.800;2023-05-09T07:10:35;20.60;99.90
1976;DHT22;988;48.016;7.800;2023-05-09T07:13:03;21.10;99.90
1976;DHT22;988;48.016;7.800;2023-05-09T07:15:28;21.10;99.90
1976;DHT22;988;48.016;7.800;2023-05-09T07:17:54;21.30;99.90
1976;DHT22;988;48.016;7.800;2023-05-09T07:20:20;21.40;99.90
1976;DHT22;988;48.016;7.800;2023-05-09T07:22:45;21.60;99.90
1976;DHT22;988;48.016;7.800;2023-05-09T07:25:11;21.80;99.90
1976;DHT22;988;48.016;7.800;2023-05-09T07:27:37;22.20;99.90
1976;DHT22;988;48.016;7.800;2023-05-09T07:30:06;22.00;99.90
1976;DHT22;988;48.016;7.800;2023-05-09T07:32:33;21.50;99.90
1976;DHT22;988;48.016;7.800;2023-05-09T07:34:59;21.40;99.90
1976;DHT22;988;48.016;7.800;2023-05-09T07:37:25;21.50;99.90
1976;DHT22;988;48.016;7.800;2023-05-09T07:39:50;21.70;99.90
1976;DHT22;988;48.016;7.800;2023-05-09T07:42:16;21.60;99.90
1976;DHT22;988;48.016;7.800;2023-05-09T07:44:42;21.70;99.90
1976;DHT22;988;48.016;7.800;2023-05-09T07:47:07;21.70;99.90
1976;DHT22;988;48.016;7.800;2023-05-09T07:49:34;22.20;99.90
1976;DHT22;988;48.016;7.800;2023-05-09T07:51:59;22.40;99.90
1976;DHT22;988;48.016;7.800;2023-05-09T07:54:25;22.80;99.90
1976;DHT22;988;48.016;7.800;2023-05-09T07:56:51;22.90;99.90
1976;DHT22;988;48.016;7.800;2023-05-09T07:59:18;22.90;99.90
1976;DHT22;988;48.016;7.800;2023-05-09T08:01:44;23.10;99.80
1976;DHT22;988;48.016;7.800;2023-05-09T08:04:10;23.50;99.30
1976;DHT22;988;48.016;7.800;2023-05-09T08:06:36;23.80;99.90
1976;DHT22;988;48.016;7.800;2023-05-09T08:09:01;24.00;99.90
1976;DHT22;988;48.016;7.800;2023-05-09T08:11:27;24.20;99.10
1976;DHT22;988;48.016;7.800;2023-05-09T08:13:53;24.90;96.50
1976;DHT22;988;48.016;7.800;2023-05-09T08:16:19;25.40;94.80
1976;DHT22;988;48.016;7.800;2023-05-09T08:18:44;25.70;94.00
1976;DHT22;988;48.016;7.800;2023-05-09T08:21:10;26.10;92.60
1976;DHT22;988;48.016;7.800;2023-05-09T08:23:36;26.30;91.30
1976;DHT22;988;48.016;7.800;2023-05-09T08:26:01;26.80;89.20
1976;DHT22;988;48.016;7.800;2023-05-09T08:28:27;27.40;85.50
1976;DHT22;988;48.016;7.800;2023-05-09T08:30:56;27.20;86.10
1976;DHT22;988;48.016;7.800;2023-05-09T08:33:22;27.70;84.20
1976;DHT22;988;48.016;7.800;2023-05-09T08:35:52;27.40;81.10
1976;DHT22;988;48.016;7.800;2023-05-09T08:38:18;27.40;84.30
1976;DHT22;988;48.016;7.800;2023-05-09T08:40:44;27.90;80.50
1976;DHT22;988;48.016;7.800;2023-05-09T08:43:11;27.90;78.10
1976;DHT22;988;48.016;7.800;2023-05-09T08:45:49;27.10;80.70
1976;DHT22;988;48.016;7.800;2023-05-09T08:48:16;27.00;83.00
1976;DHT22;988;48.016;7.800;2023-05-09T08:50:42;27.20;80.70
1976;DHT22;988;48.016;7.800;2023-05-09T08:53:08;27.60;79.60
1976;DHT22;988;48.016;7.800;2023-05-09T08:55:35;27.60;78.40
1976;DHT22;988;48.016;7.800;2023-05-09T08:58:00;28.30;74.70
1976;DHT22;988;48.016;7.800;2023-05-09T09:00:28;29.30;73.60
1976;DHT22;988;48.016;7.800;2023-05-09T09:02:56;29.70;73.30
1976;DHT22;988;48.016;7.800;2023-05-09T09:05:23;28.70;71.50
1976;DHT22;988;48.016;7.800;2023-05-09T09:07:49;29.70;70.60
1976;DHT22;988;48.016;7.800;2023-05-09T09:10:15;30.60;66.50
1976;DHT22;988;48.016;7.800;2023-05-09T09:12:42;31.90;63.50
1976;DHT22;988;48.016;7.800;2023-05-09T09:15:10;32.90;60.80
1976;DHT22;988;48.016;7.800;2023-05-09T09:17:41;33.70;58.20
1976;DHT22;988;48.016;7.800;2023-05-09T09:20:11;34.40;54.00
1976;DHT22;988;48.016;7.800;2023-05-09T09:22:41;33.00;57.20
1976;DHT22;988;48.016;7.800;2023-05-09T09:25:07;31.80;57.70
1976;DHT22;988;48.016;7.800;2023-05-09T09:27:33;29.40;61.20
1976;DHT22;988;48.016;7.800;2023-05-09T09:30:10;28.60;66.00
1976;DHT22;988;48.016;7.800;2023-05-09T09:32:37;29.80;64.20
1976;DHT22;988;48.016;7.800;2023-05-09T09:35:08;30.20;61.30
1976;DHT22;988;48.016;7.800;2023-05-09T09:37:35;29.20;63.00
1976;DHT22;988;48.016;7.800;2023-05-09T09:40:01;28.80;65.20
1976;DHT22;988;48.016;7.800;2023-05-09T09:42:39;28.50;65.50
1976;DHT22;988;48.016;7.800;2023-05-09T09:45:12;28.80;66.40
1976;DHT22;988;48.016;7.800;2023-05-09T09:47:39;28.90;64.60
1976;DHT22;988;48.016;7.800;2023-05-09T09:50:18;28.20;66.40
1976;DHT22;988;48.016;7.800;2023-05-09T09:52:55;27.30;70.60
1976;DHT22;988;48.016;7.800;2023-05-09T09:55:22;26.30;71.10
1976;DHT22;988;48.016;7.800;2023-05-09T09:57:49;25.50;74.50
1976;DHT22;988;48.016;7.800;2023-05-09T10:00:16;26.10;76.10
1976;DHT22;988;48.016;7.800;2023-05-09T10:05:22;28.90;69.30
1976;DHT22;988;48.016;7.800;2023-05-09T10:07:50;30.60;62.80
1976;DHT22;988;48.016;7.800;2023-05-09T10:10:17;31.10;61.00
1976;DHT22;988;48.016;7.800;2023-05-09T10:12:43;30.40;59.80
1976;DHT22;988;48.016;7.800;2023-05-09T10:15:10;30.20;60.90
1976;DHT22;988;48.016;7.800;2023-05-09T10:17:36;30.60;60.80
1976;DHT22;988;48.016;7.800;2023-05-09T10:20:04;31.80;57.80
1976;DHT22;988;48.016;7.800;2023-05-09T10:22:35;32.20;56.80
1976;DHT22;988;48.016;7.800;2023-05-09T10:25:02;31.40;56.90
1976;DHT22;988;48.016;7.800;2023-05-09T10:27:31;30.20;60.10
1976;DHT22;988;48.016;7.800;2023-05-09T10:30:32;30.10;60.30
1976;DHT22;988;48.016;7.800;2023-05-09T10:33:03;29.40;58.90
1976;DHT22;988;48.016;7.800;2023-05-09T10:35:36;29.50;60.70
1976;DHT22;988;48.016;7.800;2023-05-09T10:38:05;29.50;60.90
1976;DHT22;988;48.016;7.800;2023-05-09T10:40:33;30.40;59.60
1976;DHT22;988;48.016;7.800;2023-05-09T10:42:59;31.20;58.20
1976;DHT22;988;48.016;7.800;2023-05-09T10:45:24;31.70;57.10
1976;DHT22;988;48.016;7.800;2023-05-09T10:47:51;32.00;55.40
1976;DHT22;988;48.016;7.800;2023-05-09T10:50:18;32.30;55.00
1976;DHT22;988;48.016;7.800;2023-05-09T11:00:44;29.50;58.00
1976;DHT22;988;48.016;7.800;2023-05-09T11:03:10;30.10;57.50
1976;DHT22;988;48.016;7.800;2023-05-09T11:05:39;31.00;57.70
1976;DHT22;988;48.016;7.800;2023-05-09T11:08:28;31.30;56.70
1976;DHT22;988;48.016;7.800;2023-05-09T11:10:55;31.40;56.20
1976;DHT22;988;48.016;7.800;2023-05-09T11:13:23;31.40;55.30
1976;DHT22;988;48.016;7.800;2023-05-09T11:18:23;31.00;56.20
1976;DHT22;988;48.016;7.800;2023-05-09T11:20:49;30.20;56.50
1976;DHT22;988;48.016;7.800;2023-05-09T11:23:17;29.80;57.20
1976;DHT22;988;48.016;7.800;2023-05-09T11:25:48;29.30;57.60
1976;DHT22;988;48.016;7.800;2023-05-09T11:28:26;29.70;57.80
1976;DHT22;988;48.016;7.800;2023-05-09T11:30:53;30.00;56.60
1976;DHT22;988;48.016;7.800;2023-05-09T11:33:35;30.00;56.90
1976;DHT22;988;48.016;7.800;2023-05-09T11:39:09;31.50;55.40
1976;DHT22;988;48.016;7.800;2023-05-09T11:41:44;31.20;54.50
1976;DHT22;988;48.016;7.800;2023-05-09T11:44:15;30.90;54.50
1976;DHT22;988;48.016;7.800;2023-05-09T11:46:41;31.50;54.00
1976;DHT22;988;48.016;7.800;2023-05-09T11:49:07;31.70;54.70
1976;DHT22;988;48.016;7.800;2023-05-09T11:51:35;31.30;55.20
1976;DHT22;988;48.016;7.800;2023-05-09T11:54:03;31.40;54.50
1976;DHT22;988;48.016;7.800;2023-05-09T11:56:29;31.60;52.40
1976;DHT22;988;48.016;7.800;2023-05-09T11:58:55;29.90;55.40
1976;DHT22;988;48.016;7.800;2023-05-09T12:01:21;30.40;53.80
1976;DHT22;988;48.016;7.800;2023-05-09T12:03:47;30.30;54.40
1976;DHT22;988;48.016;7.800;2023-05-09T12:06:17;30.60;54.90
1976;DHT22;988;48.016;7.800;2023-05-09T12:08:46;31.10;53.60
1976;DHT22;988;48.016;7.800;2023-05-09T12:11:13;31.20;53.20
1976;DHT22;988;48.016;7.800;2023-05-09T12:13:47;31.20;53.30
1976;DHT22;988;48.016;7.800;2023-05-09T12:16:13;31.50;52.80
1976;DHT22;988;48.016;7.800;2023-05-09T12:18:50;31.10;53.50
1976;DHT22;988;48.016;7.800;2023-05-09T12:21:17;30.30;55.10
1976;DHT22;988;48.016;7.800;2023-05-09T12:23:43;30.50;54.80
1976;DHT22;988;48.016;7.800;2023-05-09T12:26:09;30.70;54.70
1976;DHT22;988;48.016;7.800;2023-05-09T12:28:35;30.80;54.10
1976;DHT22;988;48.016;7.800;2023-05-09T12:31:01;30.90;53.00
1976;DHT22;988;48.016;7.800;2023-05-09T12:33:29;30.40;54.10
1976;DHT22;988;48.016;7.800;2023-05-09T12:36:09;30.30;54.30
1976;DHT22;988;48.016;7.800;2023-05-09T12:38:35;30.60;52.90
1976;DHT22;988;48.016;7.800;2023-05-09T12:41:03;31.60;52.20
1976;DHT22;988;48.016;7.800;2023-05-09T12:43:30;31.90;51.20
1976;DHT22;988;48.016;7.800;2023-05-09T12:45:56;32.40;50.30
1976;DHT22;988;48.016;7.800;2023-05-09T12:48:23;32.10;51.20
1976;DHT22;988;48.016;7.800;2023-05-09T12:50:50;31.30;50.90
1976;DHT22;988;48.016;7.800;2023-05-09T12:53:26;31.30;50.50
1976;DHT22;988;48.016;7.800;2023-05-09T12:55:54;31.50;51.20
1976;DHT22;988;48.016;7.800;2023-05-09T12:58:20;31.50;51.40
1976;DHT22;988;48.016;7.800;2023-05-09T13:00:46;31.50;52.50
1976;DHT22;988;48.016;7.800;2023-05-09T13:03:26;30.90;51.50
1976;DHT22;988;48.016;7.800;2023-05-09T13:06:02;30.10;52.40
1976;DHT22;988;48.016;7.800;2023-05-09T13:08:29;30.10;53.30
1976;DHT22;988;48.016;7.800;2023-05-09T13:10:55;30.10;53.20
1976;DHT22;988;48.016;7.800;2023-05-09T13:13:23;30.20;52.50
1976;DHT22;988;48.016;7.800;2023-05-09T13:15:51;29.80;54.30
1976;DHT22;988;48.016;7.800;2023-05-09T13:18:17;29.50;55.40
1976;DHT22;988;48.016;7.800;2023-05-09T13:20:42;29.30;55.50
1976;DHT22;988;48.016;7.800;2023-05-09T13:23:08;28.50;56.80
1976;DHT22;988;48.016;7.800;2023-05-09T13:25:33;27.90;57.50
1976;DHT22;988;48.016;7.800;2023-05-09T13:27:59;27.50;58.00
1976;DHT22;988;48.016;7.800;2023-05-09T13:30:25;27.30;58.90
1976;DHT22;988;48.016;7.800;2023-05-09T13:32:50;26.90;60.00
1976;DHT22;988;48.016;7.800;2023-05-09T13:35:16;26.70;62.70
1976;DHT22;988;48.016;7.800;2023-05-09T13:37:42;26.80;60.90
1976;DHT22;988;48.016;7.800;2023-05-09T13:40:09;26.70;60.00
1976;DHT22;988;48.016;7.800;2023-05-09T13:42:34;26.60;61.10
1976;DHT22;988;48.016;7.800;2023-05-09T13:45:01;26.70;61.40
1976;DHT22;988;48.016;7.800;2023-05-09T13:47:26;26.40;61.30
1976;DHT22;988;48.016;7.800;2023-05-09T13:49:52;26.00;61.10
1976;DHT22;988;48.016;7.800;2023-05-09T13:52:18;25.80;61.80
1976;DHT22;988;48.016;7.800;2023-05-09T13:54:44;25.80;61.90
1976;DHT22;988;48.016;7.800;2023-05-09T13:57:10;25.70;61.60
1976;DHT22;988;48.016;7.800;2023-05-09T13:59:36;25.40;62.80
1976;DHT22;988;48.016;7.800;2023-05-09T14:02:02;25.30;64.40
1976;DHT22;988;48.016;7.800;2023-05-09T14:04:29;25.30;66.50
1976;DHT22;988;48.016;7.800;2023-05-09T14:06:56;25.30;66.20
1976;DHT22;988;48.016;7.800;2023-05-09T14:09:22;25.30;65.70
1976;DHT22;988;48.016;7.800;2023-05-09T14:11:49;25.20;65.10
1976;DHT22;988;48.016;7.800;2023-05-09T14:14:22;25.10;65.70
1976;DHT22;988;48.016;7.800;2023-05-09T14:16:48;25.00;67.30
1976;DHT22;988;48.016;7.800;2023-05-09T14:19:14;24.90;65.10
1976;DHT22;988;48.016;7.800;2023-05-09T14:21:43;24.70;67.30
1976;DHT22;988;48.016;7.800;2023-05-09T14:24:10;24.50;68.30
1976;DHT22;988;48.016;7.800;2023-05-09T14:26:36;24.20;67.90
1976;DHT22;988;48.016;7.800;2023-05-09T14:29:03;23.70;68.80
1976;DHT22;988;48.016;7.800;2023-05-09T14:31:29;23.60;71.20
1976;DHT22;988;48.016;7.800;2023-05-09T14:33:55;23.60;72.10
1976;DHT22;988;48.016;7.800;2023-05-09T14:36:21;23.50;73.30
1976;DHT22;988;48.016;7.800;2023-05-09T14:38:47;23.30;73.90
1976;DHT22;988;48.016;7.800;2023-05-09T14:41:13;23.20;75.90
1976;DHT22;988;48.016;7.800;2023-05-09T14:43:39;23.00;78.90
1976;DHT22;988;48.016;7.800;2023-05-09T14:46:05;22.90;82.00
1976;DHT22;988;48.016;7.800;2023-05-09T14:48:31;22.90;83.10
1976;DHT22;988;48.016;7.800;2023-05-09T14:50:58;22.80;85.60
1976;DHT22;988;48.016;7.800;2023-05-09T14:53:23;22.60;89.50
1976;DHT22;988;48.016;7.800;2023-05-09T14:55:49;22.60;91.20
1976;DHT22;988;48.016;7.800;2023-05-09T14:58:18;22.50;93.00
1976;DHT22;988;48.016;7.800;2023-05-09T15:00:44;22.20;92.30
1976;DHT22;988;48.016;7.800;2023-05-09T15:03:10;22.10;94.50
1976;DHT22;988;48.016;7.800;2023-05-09T15:05:36;22.20;95.80
1976;DHT22;988;48.016;7.800;2023-05-09T15:08:02;22.20;97.00
1976;DHT22;988;48.016;7.800;2023-05-09T15:10:28;22.10;99.90
1976;DHT22;988;48.016;7.800;2023-05-09T15:12:53;22.10;99.20
1976;DHT22;988;48.016;7.800;2023-05-09T15:15:21;22.00;99.90
1976;DHT22;988;48.016;7.800;2023-05-09T15:17:50;21.70;99.90
1976;DHT22;988;48.016;7.800;2023-05-09T15:20:16;21.70;99.90
1976;DHT22;988;48.016;7.800;2023-05-09T15:22:43;21.70;99.90
1976;DHT22;988;48.016;7.800;2023-05-09T15:25:09;21.60;99.90
1976;DHT22;988;48.016;7.800;2023-05-09T15:27:35;21.50;99.90
1976;DHT22;988;48.016;7.800;2023-05-09T15:30:02;21.30;99.90
1976;DHT22;988;48.016;7.800;2023-05-09T15:32:27;21.20;99.90
1976;DHT22;988;48.016;7.800;2023-05-09T15:34:53;21.00;99.90
1976;DHT22;988;48.016;7.800;2023-05-09T15:37:19;20.90;99.90
1976;DHT22;988;48.016;7.800;2023-05-09T15:39:44;20.80;99.90
1976;DHT22;988;48.016;7.800;2023-05-09T15:42:11;20.60;99.90
1976;DHT22;988;48.016;7.800;2023-05-09T15:44:38;20.20;99.90
1976;DHT22;988;48.016;7.800;2023-05-09T15:47:04;19.80;99.90
1976;DHT22;988;48.016;7.800;2023-05-09T15:49:29;19.10;99.90
1976;DHT22;988;48.016;7.800;2023-05-09T15:51:56;18.40;99.90
1976;DHT22;988;48.016;7.800;2023-05-09T15:54:21;18.20;99.90
1976;DHT22;988;48.016;7.800;2023-05-09T15:56:49;18.00;99.90
1976;DHT22;988;48.016;7.800;2023-05-09T15:59:15;17.60;99.90
1976;DHT22;988;48.016;7.800;2023-05-09T16:01:41;17.10;99.90
1976;DHT22;988;48.016;7.800;2023-05-09T16:04:07;16.90;99.90
1976;DHT22;988;48.016;7.800;2023-05-09T16:06:33;16.80;99.90
1976;DHT22;988;48.016;7.800;2023-05-09T16:08:59;16.70;99.90
1976;DHT22;988;48.016;7.800;2023-05-09T16:11:26;16.70;99.90
1976;DHT22;988;48.016;7.800;2023-05-09T16:13:52;16.80;99.90
1976;DHT22;988;48.016;7.800;2023-05-09T16:16:17;16.80;99.90
1976;DHT22;988;48.016;7.800;2023-05-09T16:18:43;16.80;99.90
1976;DHT22;988;48.016;7.800;2023-05-09T16:21:08;16.80;99.90
1976;DHT22;988;48.016;7.800;2023-05-09T16:23:34;16.90;99.90
1976;DHT22;988;48.016;7.800;2023-05-09T16:26:00;16.80;99.90
1976;DHT22;988;48.016;7.800;2023-05-09T16:28:25;16.70;99.90
1976;DHT22;988;48.016;7.800;2023-05-09T16:30:52;16.80;99.90
1976;DHT22;988;48.016;7.800;2023-05-09T16:33:18;16.80;99.90
1976;DHT22;988;48.016;7.800;2023-05-09T16:35:44;16.70;99.90
1976;DHT22;988;48.016;7.800;2023-05-09T16:38:10;16.80;99.90